sensor_id;sensor_type;location;lat;lon;timestamp;P1;durP1;ratioP1;P2;durP2;ratioP2
36797;SDS011;22748;8.426;99.512;2023-04-03T00:01:16;75.32;;;26.92;;
36797;SDS011;22748;8.426;99.512;2023-04-03T00:03:49;63.83;;;57.00;;
36797;SDS011;22748;8.426;99.512;2023-04-03T00:06:23;34.70;;;25.70;;
36797;SDS011;22748;8.426;99.512;2023-04-03T00:08:54;29.10;;;24.30;;
36797;SDS011;22748;8.426;99.512;2023-04-03T00:11:24;52.08;;;44.38;;
36797;SDS011;22748;8.426;99.512;2023-04-03T00:14:00;41.38;;;30.83;;
36797;SDS011;22748;8.426;99.512;2023-04-03T00:16:31;42.45;;;27.83;;
36797;SDS011;22748;8.426;99.512;2023-04-03T00:19:04;31.35;;;22.85;;
36797;SDS011;22748;8.426;99.512;2023-04-03T00:21:39;36.38;;;24.85;;
36797;SDS011;22748;8.426;99.512;2023-04-03T00:24:10;32.45;;;22.75;;
36797;SDS011;22748;8.426;99.512;2023-04-03T00:26:40;29.90;;;22.63;;
36797;SDS011;22748;8.426;99.512;2023-04-03T00:29:10;37.67;;;33.58;;
36797;SDS011;22748;8.426;99.512;2023-04-03T00:31:41;48.38;;;43.25;;
36797;SDS011;22748;8.426;99.512;2023-04-03T00:36:49;28.98;;;25.80;;
36797;SDS011;22748;8.426;99.512;2023-04-03T00:39:19;26.40;;;23.65;;
36797;SDS011;22748;8.426;99.512;2023-04-03T00:41:55;24.08;;;21.67;;
36797;SDS011;22748;8.426;99.512;2023-04-03T00:47:29;23.83;;;20.42;;
36797;SDS011;22748;8.426;99.512;2023-04-03T00:50:02;23.92;;;21.15;;
36797;SDS011;22748;8.426;99.512;2023-04-03T00:52:33;22.35;;;20.15;;
36797;SDS011;22748;8.426;99.512;2023-04-03T00:55:08;26.55;;;21.33;;
36797;SDS011;22748;8.426;99.512;2023-04-03T00:57:44;23.77;;;21.27;;
36797;SDS011;22748;8.426;99.512;2023-04-03T01:00:17;27.35;;;23.80;;
36797;SDS011;22748;8.426;99.512;2023-04-03T01:02:50;23.42;;;21.23;;
36797;SDS011;22748;8.426;99.512;2023-04-03T01:05:23;26.38;;;23.17;;
36797;SDS011;22748;8.426;99.512;2023-04-03T01:08:00;26.15;;;21.48;;
36797;SDS011;22748;8.426;99.512;2023-04-03T01:10:32;23.35;;;20.92;;
36797;SDS011;22748;8.426;99.512;2023-04-03T01:13:17;26.05;;;20.85;;
36797;SDS011;22748;8.426;99.512;2023-04-03T01:15:49;21.95;;;19.73;;
36797;SDS011;22748;8.426;99.512;2023-04-03T01:18:21;22.95;;;20.65;;
36797;SDS011;22748;8.426;99.512;2023-04-03T01:24:18;21.90;;;19.67;;
36797;SDS011;22748;8.426;99.512;2023-04-03T01:27:05;21.33;;;19.13;;
36797;SDS011;22748;8.426;99.512;2023-04-03T01:29:40;21.50;;;19.38;;
36797;SDS011;22748;8.426;99.512;2023-04-03T01:32:18;20.90;;;18.83;;
36797;SDS011;22748;8.426;99.512;2023-04-03T01:34:50;27.80;;;21.92;;
36797;SDS011;22748;8.426;99.512;2023-04-03T01:37:26;23.45;;;20.95;;
36797;SDS011;22748;8.426;99.512;2023-04-03T01:42:26;26.15;;;22.10;;
36797;SDS011;22748;8.426;99.512;2023-04-03T01:44:58;26.20;;;23.50;;
36797;SDS011;22748;8.426;99.512;2023-04-03T01:47:41;30.15;;;24.90;;
36797;SDS011;22748;8.426;99.512;2023-04-03T01:50:16;28.50;;;23.63;;
36797;SDS011;22748;8.426;99.512;2023-04-03T01:52:47;31.70;;;25.10;;
36797;SDS011;22748;8.426;99.512;2023-04-03T01:55:17;26.80;;;24.00;;
36797;SDS011;22748;8.426;99.512;2023-04-03T01:57:49;26.63;;;23.83;;
36797;SDS011;22748;8.426;99.512;2023-04-03T02:00:19;26.05;;;23.00;;
36797;SDS011;22748;8.426;99.512;2023-04-03T02:02:51;24.35;;;21.77;;
36797;SDS011;22748;8.426;99.512;2023-04-03T02:05:25;23.95;;;21.40;;
36797;SDS011;22748;8.426;99.512;2023-04-03T02:10:39;22.92;;;20.55;;
36797;SDS011;22748;8.426;99.512;2023-04-03T02:13:12;22.23;;;20.13;;
36797;SDS011;22748;8.426;99.512;2023-04-03T02:15:43;24.08;;;21.42;;
36797;SDS011;22748;8.426;99.512;2023-04-03T02:18:23;23.80;;;21.42;;
36797;SDS011;22748;8.426;99.512;2023-04-03T02:20:59;23.23;;;20.77;;
36797;SDS011;22748;8.426;99.512;2023-04-03T02:23:30;24.63;;;22.13;;
36797;SDS011;22748;8.426;99.512;2023-04-03T02:26:06;25.95;;;22.85;;
36797;SDS011;22748;8.426;99.512;2023-04-03T02:28:43;25.10;;;21.70;;
36797;SDS011;22748;8.426;99.512;2023-04-03T02:31:21;25.75;;;21.55;;
36797;SDS011;22748;8.426;99.512;2023-04-03T02:33:53;23.70;;;21.08;;
36797;SDS011;22748;8.426;99.512;2023-04-03T02:36:29;23.08;;;20.70;;
36797;SDS011;22748;8.426;99.512;2023-04-03T02:39:16;22.92;;;20.73;;
36797;SDS011;22748;8.426;99.512;2023-04-03T02:41:47;23.85;;;20.77;;
36797;SDS011;22748;8.426;99.512;2023-04-03T02:46:48;23.33;;;20.80;;
36797;SDS011;22748;8.426;99.512;2023-04-03T02:49:26;25.23;;;22.15;;
36797;SDS011;22748;8.426;99.512;2023-04-03T02:52:11;32.38;;;22.55;;
36797;SDS011;22748;8.426;99.512;2023-04-03T02:54:48;23.90;;;21.48;;
36797;SDS011;22748;8.426;99.512;2023-04-03T02:59:56;23.20;;;20.80;;
36797;SDS011;22748;8.426;99.512;2023-04-03T03:02:27;24.60;;;22.02;;
36797;SDS011;22748;8.426;99.512;2023-04-03T03:05:01;22.70;;;20.40;;
36797;SDS011;22748;8.426;99.512;2023-04-03T03:07:32;22.75;;;20.50;;
36797;SDS011;22748;8.426;99.512;2023-04-03T03:10:10;25.10;;;22.50;;
36797;SDS011;22748;8.426;99.512;2023-04-03T03:12:41;24.23;;;21.80;;
36797;SDS011;22748;8.426;99.512;2023-04-03T03:15:17;23.75;;;21.25;;
36797;SDS011;22748;8.426;99.512;2023-04-03T03:17:48;23.97;;;21.40;;
36797;SDS011;22748;8.426;99.512;2023-04-03T03:23:05;25.58;;;22.45;;
36797;SDS011;22748;8.426;99.512;2023-04-03T03:25:42;24.58;;;22.08;;
36797;SDS011;22748;8.426;99.512;2023-04-03T03:28:12;24.38;;;21.88;;
36797;SDS011;22748;8.426;99.512;2023-04-03T03:30:43;25.30;;;22.58;;
36797;SDS011;22748;8.426;99.512;2023-04-03T03:33:13;24.02;;;21.63;;
36797;SDS011;22748;8.426;99.512;2023-04-03T03:35:45;24.10;;;21.63;;
36797;SDS011;22748;8.426;99.512;2023-04-03T03:38:20;24.60;;;21.95;;
36797;SDS011;22748;8.426;99.512;2023-04-03T03:40:57;22.98;;;20.70;;
36797;SDS011;22748;8.426;99.512;2023-04-03T03:43:36;23.65;;;21.15;;
36797;SDS011;22748;8.426;99.512;2023-04-03T03:46:28;23.67;;;20.83;;
36797;SDS011;22748;8.426;99.512;2023-04-03T03:51:35;21.55;;;19.33;;
36797;SDS011;22748;8.426;99.512;2023-04-03T03:54:18;21.17;;;19.27;;
36797;SDS011;22748;8.426;99.512;2023-04-03T03:56:49;22.13;;;19.67;;
36797;SDS011;22748;8.426;99.512;2023-04-03T03:59:20;21.92;;;19.83;;
36797;SDS011;22748;8.426;99.512;2023-04-03T04:01:57;23.10;;;20.52;;
36797;SDS011;22748;8.426;99.512;2023-04-03T04:04:28;24.02;;;21.42;;
36797;SDS011;22748;8.426;99.512;2023-04-03T04:07:01;22.60;;;20.27;;
36797;SDS011;22748;8.426;99.512;2023-04-03T04:09:33;23.02;;;20.83;;
36797;SDS011;22748;8.426;99.512;2023-04-03T04:12:04;22.35;;;20.30;;
36797;SDS011;22748;8.426;99.512;2023-04-03T04:14:35;23.58;;;21.30;;
36797;SDS011;22748;8.426;99.512;2023-04-03T04:17:07;27.80;;;22.67;;
36797;SDS011;22748;8.426;99.512;2023-04-03T04:19:43;25.20;;;22.73;;
36797;SDS011;22748;8.426;99.512;2023-04-03T04:22:25;23.40;;;21.15;;
36797;SDS011;22748;8.426;99.512;2023-04-03T04:24:57;25.83;;;23.17;;
36797;SDS011;22748;8.426;99.512;2023-04-03T04:27:29;23.13;;;20.80;;
36797;SDS011;22748;8.426;99.512;2023-04-03T04:30:03;23.13;;;21.02;;
36797;SDS011;22748;8.426;99.512;2023-04-03T04:32:38;23.45;;;21.25;;
36797;SDS011;22748;8.426;99.512;2023-04-03T04:35:11;33.13;;;29.73;;
36797;SDS011;22748;8.426;99.512;2023-04-03T04:37:45;24.98;;;22.50;;
36797;SDS011;22748;8.426;99.512;2023-04-03T04:40:18;25.23;;;22.67;;
36797;SDS011;22748;8.426;99.512;2023-04-03T04:42:49;21.83;;;19.77;;
36797;SDS011;22748;8.426;99.512;2023-04-03T04:45:26;21.05;;;19.02;;
36797;SDS011;22748;8.426;99.512;2023-04-03T04:48:06;21.70;;;19.65;;
36797;SDS011;22748;8.426;99.512;2023-04-03T04:50:43;20.33;;;18.42;;
36797;SDS011;22748;8.426;99.512;2023-04-03T04:53:17;20.65;;;18.58;;
36797;SDS011;22748;8.426;99.512;2023-04-03T04:55:48;21.10;;;18.90;;
36797;SDS011;22748;8.426;99.512;2023-04-03T04:58:32;20.25;;;18.30;;
36797;SDS011;22748;8.426;99.512;2023-04-03T05:01:05;20.05;;;18.00;;
36797;SDS011;22748;8.426;99.512;2023-04-03T05:03:37;21.63;;;18.42;;
36797;SDS011;22748;8.426;99.512;2023-04-03T05:06:11;22.13;;;19.00;;
36797;SDS011;22748;8.426;99.512;2023-04-03T05:08:49;20.48;;;18.60;;
36797;SDS011;22748;8.426;99.512;2023-04-03T05:11:26;21.00;;;18.70;;
36797;SDS011;22748;8.426;99.512;2023-04-03T05:13:57;24.35;;;19.73;;
36797;SDS011;22748;8.426;99.512;2023-04-03T05:19:11;20.75;;;17.65;;
36797;SDS011;22748;8.426;99.512;2023-04-03T05:21:46;19.95;;;18.00;;
36797;SDS011;22748;8.426;99.512;2023-04-03T05:24:19;19.00;;;17.20;;
36797;SDS011;22748;8.426;99.512;2023-04-03T05:26:50;19.52;;;17.73;;
36797;SDS011;22748;8.426;99.512;2023-04-03T05:29:26;21.42;;;19.33;;
36797;SDS011;22748;8.426;99.512;2023-04-03T05:32:03;21.25;;;19.05;;
36797;SDS011;22748;8.426;99.512;2023-04-03T05:34:37;21.30;;;19.13;;
36797;SDS011;22748;8.426;99.512;2023-04-03T05:37:09;23.15;;;20.77;;
36797;SDS011;22748;8.426;99.512;2023-04-03T05:39:43;20.55;;;18.55;;
36797;SDS011;22748;8.426;99.512;2023-04-03T05:42:27;24.48;;;20.25;;
36797;SDS011;22748;8.426;99.512;2023-04-03T05:45:04;21.98;;;19.88;;
36797;SDS011;22748;8.426;99.512;2023-04-03T05:47:35;22.20;;;19.13;;
36797;SDS011;22748;8.426;99.512;2023-04-03T05:50:06;23.23;;;20.90;;
36797;SDS011;22748;8.426;99.512;2023-04-03T05:52:39;20.63;;;18.73;;
36797;SDS011;22748;8.426;99.512;2023-04-03T05:55:25;20.13;;;18.27;;
36797;SDS011;22748;8.426;99.512;2023-04-03T05:58:28;20.52;;;18.52;;
36797;SDS011;22748;8.426;99.512;2023-04-03T06:01:20;20.00;;;18.13;;
36797;SDS011;22748;8.426;99.512;2023-04-03T06:03:58;21.80;;;19.50;;
36797;SDS011;22748;8.426;99.512;2023-04-03T06:06:43;22.08;;;19.77;;
36797;SDS011;22748;8.426;99.512;2023-04-03T06:09:14;22.90;;;19.30;;
36797;SDS011;22748;8.426;99.512;2023-04-03T06:11:57;20.17;;;18.27;;
36797;SDS011;22748;8.426;99.512;2023-04-03T06:14:29;22.65;;;20.33;;
36797;SDS011;22748;8.426;99.512;2023-04-03T06:17:14;21.40;;;19.58;;
36797;SDS011;22748;8.426;99.512;2023-04-03T06:20:03;22.77;;;20.42;;
36797;SDS011;22748;8.426;99.512;2023-04-03T06:22:37;20.48;;;18.48;;
36797;SDS011;22748;8.426;99.512;2023-04-03T06:25:21;19.67;;;17.77;;
36797;SDS011;22748;8.426;99.512;2023-04-03T06:27:55;20.15;;;18.23;;
36797;SDS011;22748;8.426;99.512;2023-04-03T06:30:25;21.77;;;18.75;;
36797;SDS011;22748;8.426;99.512;2023-04-03T06:33:00;20.13;;;18.33;;
36797;SDS011;22748;8.426;99.512;2023-04-03T06:35:38;19.25;;;17.45;;
36797;SDS011;22748;8.426;99.512;2023-04-03T06:38:08;19.42;;;17.58;;
36797;SDS011;22748;8.426;99.512;2023-04-03T06:40:45;20.33;;;18.42;;
36797;SDS011;22748;8.426;99.512;2023-04-03T06:43:34;19.90;;;18.10;;
36797;SDS011;22748;8.426;99.512;2023-04-03T06:46:04;19.52;;;17.60;;
36797;SDS011;22748;8.426;99.512;2023-04-03T06:48:35;21.40;;;18.60;;
36797;SDS011;22748;8.426;99.512;2023-04-03T06:51:06;19.85;;;17.67;;
36797;SDS011;22748;8.426;99.512;2023-04-03T06:53:37;20.08;;;18.33;;
36797;SDS011;22748;8.426;99.512;2023-04-03T06:56:08;20.08;;;17.98;;
36797;SDS011;22748;8.426;99.512;2023-04-03T06:58:41;20.33;;;18.10;;
36797;SDS011;22748;8.426;99.512;2023-04-03T07:01:13;20.10;;;18.10;;
36797;SDS011;22748;8.426;99.512;2023-04-03T07:03:46;21.05;;;18.77;;
36797;SDS011;22748;8.426;99.512;2023-04-03T07:06:17;20.10;;;17.83;;
36797;SDS011;22748;8.426;99.512;2023-04-03T07:08:48;19.85;;;17.90;;
36797;SDS011;22748;8.426;99.512;2023-04-03T07:13:49;20.73;;;18.73;;
36797;SDS011;22748;8.426;99.512;2023-04-03T07:16:21;20.88;;;18.65;;
36797;SDS011;22748;8.426;99.512;2023-04-03T07:18:52;21.25;;;18.27;;
36797;SDS011;22748;8.426;99.512;2023-04-03T07:23:53;20.55;;;16.20;;
36797;SDS011;22748;8.426;99.512;2023-04-03T07:26:24;16.48;;;12.57;;
36797;SDS011;22748;8.426;99.512;2023-04-03T07:28:57;18.75;;;11.52;;
36797;SDS011;22748;8.426;99.512;2023-04-03T07:31:29;12.20;;;11.00;;
36797;SDS011;22748;8.426;99.512;2023-04-03T07:34:05;15.10;;;11.90;;
36797;SDS011;22748;8.426;99.512;2023-04-03T07:36:37;12.57;;;11.43;;
36797;SDS011;22748;8.426;99.512;2023-04-03T07:39:20;12.77;;;11.45;;
36797;SDS011;22748;8.426;99.512;2023-04-03T07:41:50;16.35;;;12.73;;
36797;SDS011;22748;8.426;99.512;2023-04-03T07:46:52;9.88;;;7.18;;
36797;SDS011;22748;8.426;99.512;2023-04-03T07:49:24;8.27;;;7.45;;
36797;SDS011;22748;8.426;99.512;2023-04-03T07:51:55;8.65;;;7.70;;
36797;SDS011;22748;8.426;99.512;2023-04-03T07:54:26;7.80;;;7.10;;
36797;SDS011;22748;8.426;99.512;2023-04-03T07:56:57;8.10;;;7.40;;
36797;SDS011;22748;8.426;99.512;2023-04-03T08:02:00;14.73;;;11.25;;
36797;SDS011;22748;8.426;99.512;2023-04-03T08:04:32;17.50;;;10.35;;
36797;SDS011;22748;8.426;99.512;2023-04-03T08:07:03;11.30;;;9.32;;
36797;SDS011;22748;8.426;99.512;2023-04-03T08:09:36;13.05;;;9.38;;
36797;SDS011;22748;8.426;99.512;2023-04-03T08:12:06;11.68;;;9.25;;
36797;SDS011;22748;8.426;99.512;2023-04-03T08:14:39;14.07;;;11.18;;
36797;SDS011;22748;8.426;99.512;2023-04-03T08:17:10;17.25;;;13.63;;
36797;SDS011;22748;8.426;99.512;2023-04-03T08:19:41;22.30;;;15.65;;
36797;SDS011;22748;8.426;99.512;2023-04-03T08:22:13;17.65;;;14.85;;
36797;SDS011;22748;8.426;99.512;2023-04-03T08:27:13;17.63;;;13.27;;
36797;SDS011;22748;8.426;99.512;2023-04-03T08:29:45;14.13;;;12.65;;
36797;SDS011;22748;8.426;99.512;2023-04-03T08:32:17;17.73;;;12.10;;
36797;SDS011;22748;8.426;99.512;2023-04-03T08:34:49;13.23;;;10.43;;
36797;SDS011;22748;8.426;99.512;2023-04-03T08:37:21;12.70;;;10.05;;
36797;SDS011;22748;8.426;99.512;2023-04-03T08:39:52;11.25;;;9.60;;
36797;SDS011;22748;8.426;99.512;2023-04-03T08:42:27;11.50;;;8.90;;
36797;SDS011;22748;8.426;99.512;2023-04-03T08:45:16;8.93;;;8.03;;
36797;SDS011;22748;8.426;99.512;2023-04-03T08:48:03;9.93;;;7.00;;
36797;SDS011;22748;8.426;99.512;2023-04-03T08:50:37;8.80;;;6.18;;
36797;SDS011;22748;8.426;99.512;2023-04-03T08:53:12;5.43;;;4.93;;
36797;SDS011;22748;8.426;99.512;2023-04-03T08:55:50;6.82;;;4.60;;
36797;SDS011;22748;8.426;99.512;2023-04-03T08:58:23;4.82;;;4.30;;
36797;SDS011;22748;8.426;99.512;2023-04-03T09:01:00;6.03;;;4.03;;
36797;SDS011;22748;8.426;99.512;2023-04-03T09:03:34;4.45;;;4.05;;
36797;SDS011;22748;8.426;99.512;2023-04-03T09:06:08;4.15;;;3.30;;
36797;SDS011;22748;8.426;99.512;2023-04-03T09:08:44;5.57;;;4.75;;
36797;SDS011;22748;8.426;99.512;2023-04-03T09:11:34;6.68;;;5.97;;
36797;SDS011;22748;8.426;99.512;2023-04-03T09:14:14;9.75;;;8.95;;
36797;SDS011;22748;8.426;99.512;2023-04-03T09:16:57;10.23;;;9.13;;
36797;SDS011;22748;8.426;99.512;2023-04-03T09:22:12;12.20;;;10.85;;
36797;SDS011;22748;8.426;99.512;2023-04-03T09:24:47;13.18;;;10.48;;
36797;SDS011;22748;8.426;99.512;2023-04-03T09:27:25;15.60;;;12.20;;
36797;SDS011;22748;8.426;99.512;2023-04-03T09:29:56;14.38;;;12.27;;
36797;SDS011;22748;8.426;99.512;2023-04-03T09:32:32;14.48;;;12.95;;
36797;SDS011;22748;8.426;99.512;2023-04-03T09:35:04;16.15;;;13.93;;
36797;SDS011;22748;8.426;99.512;2023-04-03T09:37:46;19.17;;;15.82;;
36797;SDS011;22748;8.426;99.512;2023-04-03T09:40:36;16.50;;;14.57;;
36797;SDS011;22748;8.426;99.512;2023-04-03T09:43:19;18.00;;;15.93;;
36797;SDS011;22748;8.426;99.512;2023-04-03T09:49:04;25.95;;;16.48;;
36797;SDS011;22748;8.426;99.512;2023-04-03T09:51:39;28.98;;;18.98;;
36797;SDS011;22748;8.426;99.512;2023-04-03T09:57:11;28.38;;;17.70;;
36797;SDS011;22748;8.426;99.512;2023-04-03T09:59:46;17.70;;;13.90;;
36797;SDS011;22748;8.426;99.512;2023-04-03T10:02:40;19.85;;;15.65;;
36797;SDS011;22748;8.426;99.512;2023-04-03T10:11:11;9.85;;;8.75;;
36797;SDS011;22748;8.426;99.512;2023-04-03T10:13:59;8.77;;;7.90;;
36797;SDS011;22748;8.426;99.512;2023-04-03T10:16:36;15.95;;;8.07;;
36797;SDS011;22748;8.426;99.512;2023-04-03T10:19:17;21.92;;;6.50;;
36797;SDS011;22748;8.426;99.512;2023-04-03T10:22:17;12.32;;;6.38;;
36797;SDS011;22748;8.426;99.512;2023-04-03T10:25:03;9.27;;;8.10;;
36797;SDS011;22748;8.426;99.512;2023-04-03T10:27:44;13.23;;;8.65;;
36797;SDS011;22748;8.426;99.512;2023-04-03T10:30:32;17.95;;;10.05;;
36797;SDS011;22748;8.426;99.512;2023-04-03T10:33:28;20.52;;;10.80;;
36797;SDS011;22748;8.426;99.512;2023-04-03T10:36:22;18.23;;;10.30;;
36797;SDS011;22748;8.426;99.512;2023-04-03T10:39:00;34.88;;;12.23;;
36797;SDS011;22748;8.426;99.512;2023-04-03T10:41:40;22.42;;;14.18;;
36797;SDS011;22748;8.426;99.512;2023-04-03T10:44:23;46.17;;;20.42;;
36797;SDS011;22748;8.426;99.512;2023-04-03T10:47:06;33.08;;;19.95;;
36797;SDS011;22748;8.426;99.512;2023-04-03T10:49:46;47.10;;;21.30;;
36797;SDS011;22748;8.426;99.512;2023-04-03T10:52:26;36.97;;;18.10;;
36797;SDS011;22748;8.426;99.512;2023-04-03T10:55:13;32.60;;;17.77;;
36797;SDS011;22748;8.426;99.512;2023-04-03T10:57:53;37.80;;;15.13;;
36797;SDS011;22748;8.426;99.512;2023-04-03T11:00:29;35.80;;;15.13;;
36797;SDS011;22748;8.426;99.512;2023-04-03T11:03:05;26.42;;;12.30;;
36797;SDS011;22748;8.426;99.512;2023-04-03T11:05:42;27.90;;;12.38;;
36797;SDS011;22748;8.426;99.512;2023-04-03T11:08:17;24.58;;;12.27;;
36797;SDS011;22748;8.426;99.512;2023-04-03T11:10:59;19.50;;;12.82;;
36797;SDS011;22748;8.426;99.512;2023-04-03T11:13:33;21.45;;;14.43;;
36797;SDS011;22748;8.426;99.512;2023-04-03T11:16:09;22.48;;;13.35;;
36797;SDS011;22748;8.426;99.512;2023-04-03T11:18:46;19.88;;;12.40;;
36797;SDS011;22748;8.426;99.512;2023-04-03T11:21:21;20.42;;;12.63;;
36797;SDS011;22748;8.426;99.512;2023-04-03T11:23:57;17.67;;;12.70;;
36797;SDS011;22748;8.426;99.512;2023-04-03T11:26:31;13.75;;;12.15;;
36797;SDS011;22748;8.426;99.512;2023-04-03T11:29:08;29.25;;;12.80;;
36797;SDS011;22748;8.426;99.512;2023-04-03T11:31:47;23.10;;;12.82;;
36797;SDS011;22748;8.426;99.512;2023-04-03T11:34:36;24.10;;;14.35;;
36797;SDS011;22748;8.426;99.512;2023-04-03T11:37:15;25.80;;;18.58;;
36797;SDS011;22748;8.426;99.512;2023-04-03T11:39:53;26.58;;;20.33;;
36797;SDS011;22748;8.426;99.512;2023-04-03T11:42:30;29.13;;;20.38;;
36797;SDS011;22748;8.426;99.512;2023-04-03T11:48:02;40.28;;;21.67;;
36797;SDS011;22748;8.426;99.512;2023-04-03T11:50:49;39.67;;;24.02;;
36797;SDS011;22748;8.426;99.512;2023-04-03T11:53:35;46.20;;;28.60;;
36797;SDS011;22748;8.426;99.512;2023-04-03T12:02:23;30.60;;;18.60;;
36797;SDS011;22748;8.426;99.512;2023-04-03T12:10:51;21.42;;;16.42;;
36797;SDS011;22748;8.426;99.512;2023-04-03T12:16:46;18.95;;;15.57;;
36797;SDS011;22748;8.426;99.512;2023-04-03T12:22:11;21.58;;;17.60;;
36797;SDS011;22748;8.426;99.512;2023-04-03T12:24:45;27.67;;;17.45;;
36797;SDS011;22748;8.426;99.512;2023-04-03T12:27:33;25.73;;;16.60;;
36797;SDS011;22748;8.426;99.512;2023-04-03T12:30:13;19.65;;;17.60;;
36797;SDS011;22748;8.426;99.512;2023-04-03T12:36:03;21.65;;;17.80;;
36797;SDS011;22748;8.426;99.512;2023-04-03T12:41:55;21.27;;;15.93;;
36797;SDS011;22748;8.426;99.512;2023-04-03T12:44:50;20.85;;;15.18;;
36797;SDS011;22748;8.426;99.512;2023-04-03T12:47:32;23.48;;;16.48;;
36797;SDS011;22748;8.426;99.512;2023-04-03T12:50:16;20.15;;;16.77;;
36797;SDS011;22748;8.426;99.512;2023-04-03T12:52:57;24.80;;;19.92;;
36797;SDS011;22748;8.426;99.512;2023-04-03T12:55:33;25.23;;;18.88;;
36797;SDS011;22748;8.426;99.512;2023-04-03T12:58:22;32.40;;;23.38;;
36797;SDS011;22748;8.426;99.512;2023-04-03T13:01:10;37.13;;;28.13;;
36797;SDS011;22748;8.426;99.512;2023-04-03T13:03:43;35.75;;;25.05;;
36797;SDS011;22748;8.426;99.512;2023-04-03T13:06:18;32.30;;;25.35;;
36797;SDS011;22748;8.426;99.512;2023-04-03T13:08:52;33.55;;;24.70;;
36797;SDS011;22748;8.426;99.512;2023-04-03T13:11:25;31.92;;;25.00;;
36797;SDS011;22748;8.426;99.512;2023-04-03T13:14:00;36.17;;;25.92;;
36797;SDS011;22748;8.426;99.512;2023-04-03T13:16:34;44.65;;;27.80;;
36797;SDS011;22748;8.426;99.512;2023-04-03T13:19:14;41.58;;;27.42;;
36797;SDS011;22748;8.426;99.512;2023-04-03T13:21:49;33.33;;;25.30;;
36797;SDS011;22748;8.426;99.512;2023-04-03T13:24:27;38.27;;;26.53;;
36797;SDS011;22748;8.426;99.512;2023-04-03T13:26:59;31.40;;;24.83;;
36797;SDS011;22748;8.426;99.512;2023-04-03T13:29:31;31.42;;;23.92;;
36797;SDS011;22748;8.426;99.512;2023-04-03T13:32:03;33.78;;;24.23;;
36797;SDS011;22748;8.426;99.512;2023-04-03T13:34:37;30.77;;;25.65;;
36797;SDS011;22748;8.426;99.512;2023-04-03T13:37:13;33.30;;;25.73;;
36797;SDS011;22748;8.426;99.512;2023-04-03T13:40:09;38.08;;;25.52;;
36797;SDS011;22748;8.426;99.512;2023-04-03T13:42:41;39.08;;;25.33;;
36797;SDS011;22748;8.426;99.512;2023-04-03T13:45:21;31.13;;;24.40;;
36797;SDS011;22748;8.426;99.512;2023-04-03T13:48:07;36.38;;;25.92;;
36797;SDS011;22748;8.426;99.512;2023-04-03T13:53:33;34.47;;;26.13;;
36797;SDS011;22748;8.426;99.512;2023-04-03T13:56:16;32.13;;;26.92;;
36797;SDS011;22748;8.426;99.512;2023-04-03T13:58:59;35.72;;;26.13;;
36797;SDS011;22748;8.426;99.512;2023-04-03T14:01:39;28.48;;;24.38;;
36797;SDS011;22748;8.426;99.512;2023-04-03T14:04:17;33.40;;;23.30;;
36797;SDS011;22748;8.426;99.512;2023-04-03T14:06:50;27.77;;;22.30;;
36797;SDS011;22748;8.426;99.512;2023-04-03T14:09:23;28.83;;;22.20;;
36797;SDS011;22748;8.426;99.512;2023-04-03T14:11:57;33.13;;;21.40;;
36797;SDS011;22748;8.426;99.512;2023-04-03T14:14:34;29.95;;;22.15;;
36797;SDS011;22748;8.426;99.512;2023-04-03T14:17:13;31.58;;;22.17;;
36797;SDS011;22748;8.426;99.512;2023-04-03T14:19:45;30.73;;;22.60;;
36797;SDS011;22748;8.426;99.512;2023-04-03T14:22:19;32.50;;;22.27;;
36797;SDS011;22748;8.426;99.512;2023-04-03T14:24:52;33.00;;;24.02;;
36797;SDS011;22748;8.426;99.512;2023-04-03T14:27:23;28.10;;;21.98;;
36797;SDS011;22748;8.426;99.512;2023-04-03T14:29:57;31.40;;;22.58;;
36797;SDS011;22748;8.426;99.512;2023-04-03T14:32:30;30.30;;;22.33;;
36797;SDS011;22748;8.426;99.512;2023-04-03T14:35:01;32.15;;;23.05;;
36797;SDS011;22748;8.426;99.512;2023-04-03T14:37:33;35.00;;;23.27;;
36797;SDS011;22748;8.426;99.512;2023-04-03T14:40:07;29.83;;;23.25;;
36797;SDS011;22748;8.426;99.512;2023-04-03T14:42:41;28.55;;;21.65;;
36797;SDS011;22748;8.426;99.512;2023-04-03T14:45:14;29.27;;;21.70;;
36797;SDS011;22748;8.426;99.512;2023-04-03T14:47:46;23.63;;;19.58;;
36797;SDS011;22748;8.426;99.512;2023-04-03T14:50:19;25.05;;;18.90;;
36797;SDS011;22748;8.426;99.512;2023-04-03T14:52:54;23.77;;;20.02;;
36797;SDS011;22748;8.426;99.512;2023-04-03T14:55:29;24.20;;;20.02;;
36797;SDS011;22748;8.426;99.512;2023-04-03T14:58:00;25.27;;;19.98;;
36797;SDS011;22748;8.426;99.512;2023-04-03T15:00:31;26.25;;;20.50;;
36797;SDS011;22748;8.426;99.512;2023-04-03T15:03:04;26.20;;;20.45;;
36797;SDS011;22748;8.426;99.512;2023-04-03T15:05:35;24.27;;;20.17;;
36797;SDS011;22748;8.426;99.512;2023-04-03T15:08:08;24.25;;;19.92;;
36797;SDS011;22748;8.426;99.512;2023-04-03T15:10:50;27.67;;;20.90;;
36797;SDS011;22748;8.426;99.512;2023-04-03T15:13:23;30.25;;;20.65;;
36797;SDS011;22748;8.426;99.512;2023-04-03T15:15:54;23.80;;;19.33;;
36797;SDS011;22748;8.426;99.512;2023-04-03T15:20:56;24.77;;;20.10;;
36797;SDS011;22748;8.426;99.512;2023-04-03T15:23:27;24.42;;;19.85;;
36797;SDS011;22748;8.426;99.512;2023-04-03T15:26:00;22.10;;;19.80;;
36797;SDS011;22748;8.426;99.512;2023-04-03T15:28:32;24.48;;;20.40;;
36797;SDS011;22748;8.426;99.512;2023-04-03T15:31:05;25.40;;;19.50;;
36797;SDS011;22748;8.426;99.512;2023-04-03T15:33:36;23.27;;;18.67;;
36797;SDS011;22748;8.426;99.512;2023-04-03T15:36:07;25.20;;;18.75;;
36797;SDS011;22748;8.426;99.512;2023-04-03T15:38:39;22.67;;;18.75;;
36797;SDS011;22748;8.426;99.512;2023-04-03T15:43:42;21.83;;;17.50;;
36797;SDS011;22748;8.426;99.512;2023-04-03T15:46:12;20.08;;;17.42;;
36797;SDS011;22748;8.426;99.512;2023-04-03T15:48:45;21.90;;;17.33;;
36797;SDS011;22748;8.426;99.512;2023-04-03T15:51:17;22.95;;;17.00;;
36797;SDS011;22748;8.426;99.512;2023-04-03T15:53:53;23.17;;;17.42;;
36797;SDS011;22748;8.426;99.512;2023-04-03T15:58:56;24.58;;;17.33;;
36797;SDS011;22748;8.426;99.512;2023-04-03T16:01:28;21.27;;;16.98;;
36797;SDS011;22748;8.426;99.512;2023-04-03T16:04:00;23.20;;;17.23;;
36797;SDS011;22748;8.426;99.512;2023-04-03T16:06:31;24.15;;;17.52;;
36797;SDS011;22748;8.426;99.512;2023-04-03T16:11:34;17.98;;;15.98;;
36797;SDS011;22748;8.426;99.512;2023-04-03T16:14:06;25.83;;;16.63;;
36797;SDS011;22748;8.426;99.512;2023-04-03T16:16:38;21.95;;;16.13;;
36797;SDS011;22748;8.426;99.512;2023-04-03T16:19:09;20.15;;;16.70;;
36797;SDS011;22748;8.426;99.512;2023-04-03T16:21:41;19.92;;;16.58;;
36797;SDS011;22748;8.426;99.512;2023-04-03T16:24:15;21.08;;;17.15;;
36797;SDS011;22748;8.426;99.512;2023-04-03T16:26:48;19.02;;;15.45;;
36797;SDS011;22748;8.426;99.512;2023-04-03T16:29:20;22.80;;;16.08;;
36797;SDS011;22748;8.426;99.512;2023-04-03T16:31:51;18.30;;;14.98;;
36797;SDS011;22748;8.426;99.512;2023-04-03T16:34:22;18.88;;;16.13;;
36797;SDS011;22748;8.426;99.512;2023-04-03T16:36:57;18.58;;;15.43;;
36797;SDS011;22748;8.426;99.512;2023-04-03T16:39:29;20.20;;;14.75;;
36797;SDS011;22748;8.426;99.512;2023-04-03T16:42:03;20.13;;;16.25;;
36797;SDS011;22748;8.426;99.512;2023-04-03T16:44:35;17.38;;;15.15;;
36797;SDS011;22748;8.426;99.512;2023-04-03T16:47:07;19.85;;;16.30;;